createdAt,value
2023-04-03T00:05:32.521Z,23
2023-04-03T00:11:23.361Z,22.9
2023-04-03T00:17:14.545Z,23.5
2023-04-03T00:23:07.441Z,23.4
2023-04-03T00:28:58.170Z,23.1
2023-04-03T00:34:50.346Z,22.9
2023-04-03T00:40:26.769Z,22.8
2023-04-03T00:46:18.532Z,22.7
2023-04-03T00:51:54.701Z,22.6
2023-04-03T00:57:30.644Z,22.5
2023-04-03T01:03:22.948Z,22.6
2023-04-03T01:09:14.298Z,22.9
2023-04-03T01:15:06.011Z,23.5
2023-04-03T01:20:57.044Z,23.3
2023-04-03T01:26:48.649Z,22.9
2023-04-03T01:32:40.466Z,22.8
2023-04-03T01:38:31.772Z,22.6
2023-04-03T01:44:23.206Z,22.6
2023-04-03T01:50:14.671Z,22.4
2023-04-03T01:56:05.820Z,22.4
2023-04-03T02:01:57.782Z,22.3
2023-04-03T02:07:51.381Z,22.5
2023-04-03T02:13:43.382Z,22.9
2023-04-03T02:19:35.036Z,23.4
2023-04-03T02:25:26.025Z,23.1
2023-04-03T02:31:01.444Z,22.8
2023-04-03T02:36:53.283Z,22.6
2023-04-03T02:42:44.638Z,22.4
2023-04-03T02:48:36.314Z,22.4
2023-04-03T02:54:28.081Z,22.3
2023-04-03T03:00:21.320Z,22.3
2023-04-03T03:05:58.090Z,22.1
2023-04-03T03:11:48.794Z,22.4
2023-04-03T03:17:40.659Z,23
2023-04-03T03:23:31.964Z,23.3
2023-04-03T03:29:23.204Z,22.9
2023-04-03T03:35:15.157Z,22.6
2023-04-03T03:41:06.917Z,22.5
2023-04-03T03:46:45.140Z,22.3
2023-04-03T03:52:21.049Z,22.3
2023-04-03T03:58:12.336Z,22.1
2023-04-03T04:04:05.807Z,22.3
2023-04-03T04:09:57.340Z,22.9
2023-04-03T04:15:32.672Z,23.3
2023-04-03T04:21:08.752Z,23.1
2023-04-03T04:26:59.498Z,22.7
2023-04-03T04:32:50.609Z,22.6
2023-04-03T04:38:42.604Z,22.3
2023-04-03T04:44:33.777Z,22.3
2023-04-03T04:50:27.716Z,22.1
2023-04-03T04:56:25.906Z,22.3
2023-04-03T05:02:18.815Z,22.9
2023-04-03T05:07:56.225Z,23.4
2023-04-03T05:13:46.811Z,23.1
2023-04-03T05:19:38.596Z,22.7
2023-04-03T05:25:29.377Z,22.5
2023-04-03T05:31:22.393Z,22.3
2023-04-03T05:37:15.848Z,22.3
2023-04-03T05:43:08.285Z,22.1
2023-04-03T05:49:02.226Z,22.3
2023-04-03T05:54:54.535Z,22.8
2023-04-03T06:00:46.655Z,23.3
2023-04-03T06:06:42.070Z,23
2023-04-03T06:12:34.875Z,22.6
2023-04-03T06:18:26.213Z,22.4
2023-04-03T06:24:17.440Z,22.3
2023-04-03T06:30:08.893Z,22.3
2023-04-03T06:36:03.161Z,22.1
2023-04-03T06:41:54.572Z,22.3
2023-04-03T06:47:47.987Z,22.8
2023-04-03T06:53:40.384Z,23.3
2023-04-03T06:59:32.340Z,22.9
2023-04-03T07:05:25.051Z,22.6
2023-04-03T07:11:16.503Z,22.4
2023-04-03T07:17:07.961Z,22.4
2023-04-03T07:23:01.188Z,22.3
2023-04-03T07:28:57.514Z,22.4
2023-04-03T07:34:49.509Z,22.9
2023-04-03T07:40:41.531Z,23.3
2023-04-03T07:46:32.738Z,23
2023-04-03T07:52:08.924Z,22.8
2023-04-03T07:58:02.174Z,22.6
2023-04-03T08:03:39.602Z,22.8
2023-04-03T08:09:46.399Z,23.4
2023-04-03T08:15:38.647Z,23.1
2023-04-03T08:21:21.602Z,22.9
2023-04-03T08:27:27.208Z,22.8
2023-04-03T08:33:03.875Z,22.9
2023-04-03T08:38:55.255Z,23.4
2023-04-03T08:44:47.951Z,23.2
2023-04-03T08:50:45.821Z,23
2023-04-03T08:56:38.822Z,22.9
2023-04-03T09:02:32.030Z,22.9
2023-04-03T09:08:25.641Z,23.5
2023-04-03T09:14:17.283Z,23.3
2023-04-03T09:20:23.638Z,23.1
2023-04-03T09:26:21.812Z,23
2023-04-03T09:32:23.475Z,22.9
2023-04-03T09:38:17.149Z,23.5
2023-04-03T09:44:18.068Z,23.4
2023-04-03T09:50:19.786Z,23.2
2023-04-03T09:56:14.062Z,23.1
2023-04-03T10:02:18.806Z,22.9
2023-04-03T10:08:34.576Z,22.9
2023-04-03T10:14:39.535Z,22.9
2023-04-03T10:20:46.313Z,23.2
2023-04-03T10:26:47.507Z,23
2023-04-03T10:32:41.502Z,22.8
2023-04-03T10:38:40.957Z,22.7
2023-04-03T10:44:45.692Z,22.6
2023-04-03T10:50:32.273Z,22.7
2023-04-03T10:56:24.411Z,23.1
2023-04-03T11:02:31.183Z,22.9
2023-04-03T11:08:10.091Z,22.8
2023-04-03T11:13:47.435Z,22.7
2023-04-03T11:19:37.243Z,22.6
2023-04-03T11:25:26.815Z,22.6
2023-04-03T11:31:14.551Z,22.5
2023-04-03T11:37:08.294Z,22.6
2023-04-03T11:43:00.034Z,22.9
2023-04-03T11:49:01.744Z,22.8
2023-04-03T11:55:27.661Z,22.6
2023-04-03T12:02:02.178Z,22.5
2023-04-03T12:08:42.600Z,22.4
2023-04-03T12:15:07.066Z,22.3
2023-04-03T12:21:35.201Z,22.3
2023-04-03T12:27:48.770Z,22.6
2023-04-03T12:34:13.548Z,22.6
2023-04-03T12:40:45.667Z,22.4
2023-04-03T12:47:11.643Z,22.4
2023-04-03T12:53:24.945Z,22.3
2023-04-03T12:59:51.815Z,22.3
2023-04-03T13:06:16.523Z,22.3
2023-04-03T13:12:45.530Z,22.2
2023-04-03T13:19:14.913Z,22.6
2023-04-03T13:25:53.292Z,22.4
2023-04-03T13:31:57.144Z,22.3
2023-04-03T13:37:47.600Z,22.3
2023-04-03T13:43:32.843Z,22.2
2023-04-03T13:49:29.624Z,22.2
2023-04-03T13:55:18.797Z,22.1
2023-04-03T14:00:58.718Z,22.1
2023-04-03T14:06:19.383Z,22.3
2023-04-03T14:12:05.150Z,22.5
2023-04-03T14:17:58.494Z,22.3
2023-04-03T14:23:35.987Z,22.3
2023-04-03T14:29:12.540Z,22.2
2023-04-03T14:34:59.930Z,22.1
2023-04-03T14:40:36.968Z,22.1
2023-04-03T14:46:19.752Z,22.1
2023-04-03T14:52:32.801Z,21.9
2023-04-03T14:58:22.038Z,22.4
2023-04-03T15:04:00.371Z,22.4
2023-04-03T15:09:39.297Z,22.2
2023-04-03T15:15:34.615Z,22.1
2023-04-03T15:20:56.480Z,22.1
2023-04-03T15:26:17.521Z,22.1
2023-04-03T15:31:54.031Z,22
2023-04-03T15:37:56.372Z,22
2023-04-03T15:43:32.315Z,21.9
2023-04-03T15:49:08.292Z,22.1
2023-04-03T15:55:00.029Z,22.3
2023-04-03T16:00:36.510Z,22.2
2023-04-03T16:06:15.175Z,22.1
2023-04-03T16:11:51.773Z,22
2023-04-03T16:17:43.511Z,22
2023-04-03T16:23:04.474Z,22
2023-04-03T16:28:41.826Z,21.9
2023-04-03T16:34:36.935Z,21.9
2023-04-03T16:40:18.424Z,22.1
2023-04-03T16:46:14.471Z,22.3
2023-04-03T16:52:09.205Z,22.1
2023-04-03T16:57:48.307Z,22.1
2023-04-03T17:03:45.699Z,22
2023-04-03T17:09:41.552Z,22
2023-04-03T17:15:40.260Z,21.9
2023-04-03T17:21:35.562Z,21.9
2023-04-03T17:27:29.525Z,21.9
2023-04-03T17:33:09.808Z,22.3
2023-04-03T17:39:07.350Z,22.1
2023-04-03T17:45:04.601Z,22
2023-04-03T17:51:03.665Z,21.9
2023-04-03T17:57:03.034Z,21.9
2023-04-03T18:03:02.667Z,21.9
2023-04-03T18:08:45.766Z,21.9
2023-04-03T18:14:30.253Z,21.8
2023-04-03T18:20:46.680Z,22.1
2023-04-03T18:26:51.624Z,22.3
2023-04-03T18:32:52.296Z,22.1
2023-04-03T18:38:53.195Z,22.1
2023-04-03T18:44:37.015Z,22
2023-04-03T18:50:38.058Z,22
2023-04-03T18:56:38.365Z,22
2023-04-03T19:02:40.075Z,22
2023-04-03T19:08:40.654Z,21.9
2023-04-03T19:15:05.310Z,22.3
2023-04-03T19:21:06.357Z,22.1
2023-04-03T19:27:07.710Z,22.1
2023-04-03T19:33:07.441Z,22
2023-04-03T19:39:06.329Z,22
2023-04-03T19:44:58.671Z,22
2023-04-03T19:51:02.667Z,21.9
2023-04-03T19:56:54.243Z,21.8
2023-04-03T20:03:02.060Z,22.3
2023-04-03T20:08:54.688Z,22.2
2023-04-03T20:14:46.699Z,22.1
2023-04-03T20:20:40.836Z,22
2023-04-03T20:27:05.276Z,22
2023-04-03T20:32:43.642Z,22
2023-04-03T20:38:33.155Z,22
2023-04-03T20:44:26.756Z,21.9
2023-04-03T20:50:29.900Z,22
2023-04-03T20:56:21.480Z,22.8
2023-04-03T21:02:10.737Z,22.7
2023-04-03T21:08:05.966Z,22.5
2023-04-03T21:13:58.859Z,22.4
2023-04-03T21:19:50.672Z,22.4
2023-04-03T21:25:42.736Z,23.1
2023-04-03T21:31:35.242Z,22.9
2023-04-03T21:37:26.864Z,22.8
2023-04-03T21:43:03.041Z,22.7
2023-04-03T21:48:56.872Z,22.6
2023-04-03T21:54:48.103Z,23.2
2023-04-03T22:00:41.162Z,23.2
2023-04-03T22:06:44.352Z,22.9
2023-04-03T22:12:36.108Z,22.7
2023-04-03T22:18:12.169Z,22.6
2023-04-03T22:24:04.243Z,23.1
2023-04-03T22:29:54.957Z,23.3
2023-04-03T22:35:31.530Z,23.1
2023-04-03T22:41:23.166Z,22.9
2023-04-03T22:47:04.105Z,22.9
2023-04-03T22:52:55.779Z,22.9
2023-04-03T22:58:53.794Z,23.5
2023-04-03T23:04:30.544Z,23.2
2023-04-03T23:10:22.591Z,23.1
2023-04-03T23:15:59.475Z,22.9
2023-04-03T23:21:35.861Z,22.8
2023-04-03T23:27:27.424Z,23.3
2023-04-03T23:33:19.460Z,23.4
2023-04-03T23:38:55.473Z,23.2
2023-04-03T23:44:48.879Z,23.1
2023-04-03T23:50:25.959Z,22.9
2023-04-03T23:56:02.244Z,22.9
